createdAt,value
2017-09-03T00:00:23.302Z,0
2017-09-03T00:01:37.065Z,0
2017-09-03T00:02:51.103Z,0
2017-09-03T00:04:05.033Z,0
2017-09-03T00:05:19.122Z,0
2017-09-03T00:06:33.523Z,0
2017-09-03T00:07:47.216Z,0
2017-09-03T00:09:01.281Z,0
2017-09-03T00:10:15.534Z,0
2017-09-03T00:11:29.184Z,0
2017-09-03T00:12:42.834Z,0
2017-09-03T00:13:56.812Z,0
2017-09-03T00:15:11.949Z,0
2017-09-03T00:16:25.893Z,0
2017-09-03T00:17:39.487Z,0
2017-09-03T00:18:53.051Z,0
2017-09-03T00:20:06.693Z,0
2017-09-03T00:21:20.662Z,0
2017-09-03T00:22:34.228Z,0
2017-09-03T00:23:48.576Z,0
2017-09-03T00:25:02.160Z,0
2017-09-03T00:26:16.199Z,0
2017-09-03T00:27:30.452Z,0
2017-09-03T00:28:44.039Z,0
2017-09-03T00:29:57.981Z,0
2017-09-03T00:31:11.549Z,0
2017-09-03T00:32:25.266Z,0
2017-09-03T00:33:39.155Z,0
2017-09-03T00:34:52.789Z,0
2017-09-03T00:36:06.707Z,0
2017-09-03T00:37:20.460Z,0
2017-09-03T00:38:34.421Z,0
2017-09-03T00:39:48.305Z,0
2017-09-03T00:41:02.373Z,0
2017-09-03T00:42:16.005Z,0
2017-09-03T00:43:29.714Z,0
2017-09-03T00:44:43.969Z,0
2017-09-03T00:45:58.192Z,0
2017-09-03T00:47:11.818Z,0
2017-09-03T00:48:25.460Z,0
2017-09-03T00:49:39.065Z,0
2017-09-03T00:50:52.644Z,0
2017-09-03T00:52:07.349Z,0
2017-09-03T00:53:21.315Z,0
2017-09-03T00:54:34.985Z,0
2017-09-03T00:55:48.878Z,0
2017-09-03T00:57:03.029Z,0
2017-09-03T00:58:16.941Z,0
2017-09-03T00:59:30.980Z,0
2017-09-03T01:00:44.757Z,0
2017-09-03T01:01:58.340Z,0
2017-09-03T01:03:11.957Z,0
2017-09-03T01:04:25.847Z,0
2017-09-03T01:05:39.419Z,0
2017-09-03T01:06:53.014Z,0
2017-09-03T01:08:06.755Z,0
2017-09-03T01:09:20.445Z,0
2017-09-03T01:10:34.866Z,0
2017-09-03T01:11:48.769Z,0
2017-09-03T01:13:02.699Z,0
2017-09-03T01:14:16.312Z,0
2017-09-03T01:15:30.484Z,0
2017-09-03T01:16:44.500Z,0
2017-09-03T01:17:58.180Z,0
2017-09-03T01:19:12.182Z,0
2017-09-03T01:20:25.764Z,0
2017-09-03T01:21:40.050Z,0
2017-09-03T01:22:54.013Z,0
2017-09-03T01:24:07.612Z,0
2017-09-03T01:25:21.195Z,0
2017-09-03T01:26:34.758Z,0
2017-09-03T01:27:48.325Z,0
2017-09-03T01:29:02.191Z,0
2017-09-03T01:30:15.821Z,0
2017-09-03T01:31:29.386Z,0
2017-09-03T01:32:43.035Z,0
2017-09-03T01:33:56.953Z,0
2017-09-03T01:35:10.998Z,0
2017-09-03T01:36:24.557Z,0
2017-09-03T01:37:38.208Z,0
2017-09-03T01:38:51.791Z,0
2017-09-03T01:40:05.366Z,0
2017-09-03T01:41:19.309Z,0
2017-09-03T01:42:32.883Z,0
2017-09-03T01:43:46.510Z,0
2017-09-03T01:45:00.131Z,0
2017-09-03T01:46:13.704Z,0
2017-09-03T01:47:27.562Z,0
2017-09-03T01:48:41.135Z,0
2017-09-03T01:49:54.787Z,0
2017-09-03T01:51:08.338Z,0
2017-09-03T01:52:21.912Z,0
2017-09-03T01:53:35.825Z,0
2017-09-03T01:54:49.604Z,0
2017-09-03T01:56:03.212Z,0
2017-09-03T01:57:16.918Z,0
2017-09-03T01:58:30.521Z,0
2017-09-03T01:59:44.401Z,0
2017-09-03T02:00:58.299Z,0
2017-09-03T02:02:11.874Z,0
2017-09-03T02:03:25.441Z,0
2017-09-03T02:04:39.077Z,0
2017-09-03T02:05:52.948Z,0
2017-09-03T02:07:06.523Z,0
2017-09-03T02:08:20.088Z,0
2017-09-03T02:09:33.687Z,0
2017-09-03T02:10:47.250Z,0
2017-09-03T02:12:01.230Z,0
2017-09-03T02:13:14.826Z,0
2017-09-03T02:14:28.441Z,0
2017-09-03T02:15:42.033Z,0
2017-09-03T02:16:55.660Z,0
2017-09-03T02:18:09.857Z,0
2017-09-03T02:19:29.686Z,0
2017-09-03T02:20:43.278Z,0
2017-09-03T02:21:56.892Z,0
2017-09-03T02:23:10.684Z,0
2017-09-03T02:24:24.592Z,0
2017-09-03T02:25:38.160Z,0
2017-09-03T02:26:51.943Z,0
2017-09-03T02:28:05.536Z,0
2017-09-03T02:29:19.249Z,0
2017-09-03T02:30:33.113Z,0
2017-09-03T02:31:47.212Z,0
2017-09-03T02:33:00.807Z,0
2017-09-03T02:34:14.416Z,0
2017-09-03T02:35:28.314Z,0
2017-09-03T02:36:42.191Z,0
2017-09-03T02:37:55.749Z,0
2017-09-03T02:39:09.337Z,0
2017-09-03T02:40:22.908Z,0
2017-09-03T02:41:36.486Z,0
2017-09-03T02:42:50.574Z,0
2017-09-03T02:44:04.126Z,0
2017-09-03T02:45:17.685Z,0
2017-09-03T02:46:31.285Z,0
2017-09-03T02:47:44.840Z,0
2017-09-03T02:48:58.775Z,0
2017-09-03T02:50:12.774Z,0
2017-09-03T02:51:26.537Z,0
2017-09-03T02:52:40.148Z,0
2017-09-03T02:53:53.733Z,0
2017-09-03T02:55:07.603Z,0
2017-09-03T02:56:21.480Z,0
2017-09-03T02:57:35.090Z,0
2017-09-03T02:58:48.666Z,0
2017-09-03T03:00:02.240Z,0
2017-09-03T03:01:16.117Z,0
2017-09-03T03:02:29.830Z,0
2017-09-03T03:03:43.447Z,0
2017-09-03T03:04:57.028Z,0
2017-09-03T03:06:10.926Z,0
2017-09-03T03:07:24.812Z,0
2017-09-03T03:08:38.544Z,0
2017-09-03T03:09:52.294Z,0
2017-09-03T03:11:05.992Z,0
2017-09-03T03:12:19.764Z,0
2017-09-03T03:13:33.657Z,0
2017-09-03T03:14:47.207Z,0
2017-09-03T03:16:00.766Z,0
2017-09-03T03:17:14.477Z,0
2017-09-03T03:18:28.051Z,0
2017-09-03T03:19:42.261Z,0
2017-09-03T03:20:56.143Z,0
2017-09-03T03:22:09.691Z,0
2017-09-03T03:23:23.265Z,0
2017-09-03T03:24:36.882Z,0
2017-09-03T03:25:50.734Z,0
2017-09-03T03:27:04.419Z,0
2017-09-03T03:28:17.972Z,0
2017-09-03T03:29:32.090Z,0
2017-09-03T03:30:46.094Z,0
2017-09-03T03:31:59.986Z,0
2017-09-03T03:33:13.554Z,0
2017-09-03T03:34:27.274Z,0
2017-09-03T03:35:40.851Z,0
2017-09-03T03:36:54.787Z,0
2017-09-03T03:38:08.670Z,0
2017-09-03T03:39:22.370Z,0
2017-09-03T03:40:35.914Z,0
2017-09-03T03:41:49.853Z,0
2017-09-03T03:43:03.787Z,0
2017-09-03T03:44:17.721Z,0
2017-09-03T03:45:31.476Z,0
2017-09-03T03:46:45.354Z,0
2017-09-03T03:47:59.011Z,0
2017-09-03T03:49:12.844Z,0
2017-09-03T03:50:26.716Z,0
2017-09-03T03:51:40.279Z,0
2017-09-03T03:52:53.850Z,0
2017-09-03T03:54:07.430Z,0
2017-09-03T03:55:20.995Z,0
2017-09-03T03:56:34.863Z,0
2017-09-03T03:57:48.439Z,0
2017-09-03T03:59:01.999Z,0
2017-09-03T04:00:15.640Z,0
2017-09-03T04:01:29.314Z,0
2017-09-03T04:02:43.161Z,0
2017-09-03T04:03:56.716Z,0
2017-09-03T04:05:10.458Z,0
2017-09-03T04:06:24.413Z,0
2017-09-03T04:07:38.021Z,0
2017-09-03T04:08:51.895Z,0
2017-09-03T04:10:05.491Z,0
2017-09-03T04:11:19.107Z,0
2017-09-03T04:12:33.486Z,0
2017-09-03T04:13:47.066Z,0
2017-09-03T04:15:01.280Z,0
2017-09-03T04:16:14.897Z,0
2017-09-03T04:17:28.472Z,4
2017-09-03T04:18:42.023Z,4
2017-09-03T04:19:55.583Z,0
2017-09-03T04:21:09.877Z,4
2017-09-03T04:22:23.460Z,8
2017-09-03T04:23:37.024Z,8
2017-09-03T04:24:50.577Z,8
2017-09-03T04:26:04.484Z,8
2017-09-03T04:27:18.701Z,12
2017-09-03T04:28:32.432Z,20
2017-09-03T04:29:45.991Z,24
2017-09-03T04:31:00.896Z,28
2017-09-03T04:32:14.443Z,32
2017-09-03T04:33:28.432Z,40
2017-09-03T04:34:42.326Z,44
2017-09-03T04:35:55.875Z,48
2017-09-03T04:37:09.520Z,52
2017-09-03T04:38:23.080Z,64
2017-09-03T04:39:37.265Z,68
2017-09-03T04:40:50.811Z,76
2017-09-03T04:42:04.425Z,88
2017-09-03T04:43:17.998Z,96
2017-09-03T04:44:31.585Z,112
2017-09-03T04:45:45.466Z,128
2017-09-03T04:46:59.207Z,152
2017-09-03T04:48:12.780Z,168
2017-09-03T04:49:26.364Z,184
2017-09-03T04:50:39.940Z,200
2017-09-03T04:51:53.815Z,224
2017-09-03T04:53:07.441Z,236
2017-09-03T04:54:22.012Z,256
2017-09-03T04:55:35.585Z,284
2017-09-03T04:56:49.142Z,324
2017-09-03T04:58:03.099Z,368
2017-09-03T04:59:17.064Z,412
2017-09-03T05:00:30.766Z,452
2017-09-03T05:01:44.323Z,480
2017-09-03T05:02:57.956Z,528
2017-09-03T05:04:11.823Z,604
2017-09-03T05:05:25.371Z,684
2017-09-03T05:06:38.996Z,736
2017-09-03T05:07:52.614Z,780
2017-09-03T05:09:06.361Z,832
2017-09-03T05:10:20.272Z,880
2017-09-03T05:11:34.190Z,940
2017-09-03T05:12:47.716Z,1000
2017-09-03T05:14:01.262Z,1040
2017-09-03T05:15:14.856Z,1084
2017-09-03T05:16:28.752Z,1132
2017-09-03T05:17:42.381Z,1164
2017-09-03T05:18:55.954Z,1240
2017-09-03T05:20:09.851Z,1284
2017-09-03T05:21:23.743Z,1340
2017-09-03T05:22:37.811Z,1424
2017-09-03T05:23:51.521Z,1500
2017-09-03T05:25:05.116Z,1532
2017-09-03T05:26:18.902Z,1512
2017-09-03T05:27:32.465Z,1528
2017-09-03T05:28:46.332Z,1568
2017-09-03T05:30:00.064Z,1588
2017-09-03T05:31:13.633Z,1632
2017-09-03T05:32:27.196Z,1700
2017-09-03T05:33:40.774Z,1668
2017-09-03T05:34:54.641Z,1636
2017-09-03T05:36:08.393Z,1680
2017-09-03T05:37:22.014Z,1700
2017-09-03T05:38:36.131Z,1772
2017-09-03T05:39:49.733Z,1852
2017-09-03T05:41:10.412Z,1956
2017-09-03T05:42:24.564Z,1904
2017-09-03T05:43:38.458Z,1896
2017-09-03T05:44:52.439Z,1732
2017-09-03T05:46:06.540Z,1676
2017-09-03T05:47:20.462Z,1752
2017-09-03T05:48:34.024Z,1808
2017-09-03T05:49:48.029Z,1820
2017-09-03T05:51:01.860Z,1872
2017-09-03T05:52:15.514Z,1908
2017-09-03T05:53:29.605Z,2064
2017-09-03T05:54:43.330Z,2056
2017-09-03T05:55:56.905Z,2204
2017-09-03T05:57:10.509Z,2616
2017-09-03T05:58:24.082Z,2716
2017-09-03T05:59:38.132Z,2932
2017-09-03T06:00:51.688Z,2944
2017-09-03T06:02:05.305Z,2444
2017-09-03T06:03:18.923Z,2312
2017-09-03T06:04:32.492Z,2480
2017-09-03T06:05:46.412Z,2628
2017-09-03T06:07:00.057Z,2808
2017-09-03T06:08:13.633Z,2760
2017-09-03T06:09:27.414Z,2872
2017-09-03T06:10:40.979Z,2752
2017-09-03T06:11:54.874Z,2504
2017-09-03T06:13:08.528Z,2436
2017-09-03T06:14:22.118Z,2640
2017-09-03T06:15:35.684Z,3280
2017-09-03T06:16:49.273Z,3564
2017-09-03T06:18:03.259Z,3416
2017-09-03T06:19:16.871Z,3444
2017-09-03T06:20:30.685Z,3304
2017-09-03T06:21:44.593Z,3380
2017-09-03T06:22:58.553Z,3256
2017-09-03T06:24:12.463Z,3524
2017-09-03T06:25:26.399Z,3260
2017-09-03T06:26:40.177Z,3380
2017-09-03T06:27:53.897Z,3332
2017-09-03T06:29:08.027Z,3044
2017-09-03T06:30:22.267Z,3084
2017-09-03T06:31:35.862Z,3256
2017-09-03T06:32:49.589Z,3344
2017-09-03T06:34:03.709Z,3240
2017-09-03T06:35:17.289Z,3584
2017-09-03T06:36:31.193Z,4180
2017-09-03T06:37:44.817Z,4328
2017-09-03T06:38:58.395Z,4152
2017-09-03T06:40:11.969Z,3528
2017-09-03T06:41:25.630Z,3248
2017-09-03T06:42:39.498Z,3376
2017-09-03T06:43:53.060Z,3712
2017-09-03T06:45:06.680Z,3888
2017-09-03T06:46:20.261Z,3972
2017-09-03T06:47:34.060Z,4704
2017-09-03T06:48:47.986Z,4436
2017-09-03T06:50:01.593Z,4072
2017-09-03T06:51:15.172Z,4176
2017-09-03T06:52:28.730Z,3864
2017-09-03T06:53:42.613Z,3952
2017-09-03T06:54:56.480Z,4132
2017-09-03T06:56:10.060Z,3756
2017-09-03T06:57:23.673Z,3944
2017-09-03T06:58:37.246Z,5108
2017-09-03T06:59:50.800Z,5920
2017-09-03T07:01:04.693Z,5384
2017-09-03T07:02:18.328Z,5348
2017-09-03T07:03:31.896Z,5596
2017-09-03T07:04:45.479Z,5320
2017-09-03T07:05:59.109Z,5260
2017-09-03T07:07:12.991Z,5156
2017-09-03T07:08:27.017Z,4760
2017-09-03T07:09:40.582Z,4500
2017-09-03T07:10:54.224Z,4532
2017-09-03T07:12:07.790Z,4652
2017-09-03T07:13:21.652Z,4716
2017-09-03T07:14:35.609Z,4696
2017-09-03T07:15:49.250Z,4688
2017-09-03T07:17:03.060Z,4576
2017-09-03T07:18:16.661Z,4620
2017-09-03T07:19:30.543Z,4948
2017-09-03T07:20:44.094Z,4976
2017-09-03T07:21:57.652Z,5064
2017-09-03T07:23:11.402Z,5128
2017-09-03T07:24:24.984Z,5148
2017-09-03T07:25:38.863Z,5592
2017-09-03T07:26:52.457Z,6092
2017-09-03T07:28:06.359Z,6168
2017-09-03T07:29:20.394Z,5852
2017-09-03T07:30:34.155Z,5572
2017-09-03T07:31:48.211Z,5400
2017-09-03T07:33:01.902Z,5572
2017-09-03T07:34:16.330Z,5476
2017-09-03T07:35:30.448Z,5288
2017-09-03T07:36:44.145Z,5324
2017-09-03T07:37:58.004Z,5252
2017-09-03T07:39:11.802Z,5212
2017-09-03T07:40:25.391Z,5516
2017-09-03T07:41:39.148Z,5608
2017-09-03T07:42:52.719Z,5676
2017-09-03T07:44:07.525Z,5536
2017-09-03T07:45:21.757Z,5680
2017-09-03T07:46:35.718Z,5992
2017-09-03T07:47:49.297Z,6292
2017-09-03T07:49:02.949Z,6316
2017-09-03T07:50:17.086Z,6304
2017-09-03T07:51:31.038Z,6480
2017-09-03T07:52:44.618Z,6380
2017-09-03T07:53:58.231Z,6128
2017-09-03T07:55:11.884Z,6080
2017-09-03T07:56:25.902Z,6016
2017-09-03T07:57:40.037Z,6016
2017-09-03T07:58:53.632Z,5860
2017-09-03T08:00:07.321Z,5668
2017-09-03T08:01:20.931Z,5384
2017-09-03T08:02:34.812Z,5256
2017-09-03T08:03:48.481Z,5352
2017-09-03T08:05:02.096Z,5712
2017-09-03T08:06:15.687Z,6116
2017-09-03T08:07:29.301Z,6232
2017-09-03T08:08:43.211Z,6008
2017-09-03T08:09:56.900Z,5804
2017-09-03T08:11:10.889Z,5748
2017-09-03T08:12:24.470Z,5868
2017-09-03T08:13:38.055Z,6160
2017-09-03T08:14:51.913Z,6416
2017-09-03T08:16:05.657Z,5884
2017-09-03T08:17:19.592Z,5260
2017-09-03T08:18:33.179Z,5176
2017-09-03T08:19:47.165Z,5896
2017-09-03T08:21:01.073Z,6368
2017-09-03T08:22:14.716Z,6392
2017-09-03T08:23:28.750Z,6292
2017-09-03T08:24:42.333Z,6760
2017-09-03T08:25:55.913Z,6624
2017-09-03T08:27:10.162Z,6548
2017-09-03T08:28:23.756Z,6444
2017-09-03T08:29:37.337Z,6240
2017-09-03T08:30:51.011Z,6500
2017-09-03T08:32:04.648Z,6856
2017-09-03T08:33:18.522Z,7200
2017-09-03T08:34:32.114Z,7184
2017-09-03T08:35:46.008Z,6840
2017-09-03T08:37:00.349Z,6388
2017-09-03T08:38:14.429Z,6400
2017-09-03T08:39:28.374Z,6328
2017-09-03T08:40:41.999Z,6464
2017-09-03T08:41:55.980Z,6856
2017-09-03T08:43:09.556Z,7248
2017-09-03T08:44:23.238Z,6908
2017-09-03T08:45:37.395Z,6256
2017-09-03T08:46:51.909Z,5856
2017-09-03T08:48:05.674Z,5556
2017-09-03T08:49:19.418Z,5644
2017-09-03T08:50:33.042Z,6124
2017-09-03T08:51:47.103Z,6736
2017-09-03T08:53:00.748Z,7140
2017-09-03T08:54:14.358Z,6740
2017-09-03T08:55:28.611Z,5844
2017-09-03T08:56:42.198Z,5160
2017-09-03T08:57:56.305Z,4840
2017-09-03T08:59:09.856Z,4760
2017-09-03T09:00:23.775Z,4584
2017-09-03T09:01:37.356Z,4288
2017-09-03T09:02:50.965Z,4272
2017-09-03T09:04:04.894Z,4216
2017-09-03T09:05:18.852Z,4512
2017-09-03T09:06:32.450Z,4636
2017-09-03T09:07:46.038Z,4436
2017-09-03T09:09:00.024Z,4964
2017-09-03T09:10:14.191Z,5480
2017-09-03T09:11:28.105Z,5164
2017-09-03T09:12:41.837Z,5088
2017-09-03T09:13:55.482Z,5224
2017-09-03T09:15:09.406Z,5228
2017-09-03T09:16:23.292Z,5036
2017-09-03T09:17:36.874Z,4904
2017-09-03T09:18:50.618Z,5536
2017-09-03T09:20:04.525Z,5980
2017-09-03T09:21:18.222Z,4652
2017-09-03T09:22:32.214Z,4144
2017-09-03T09:23:45.816Z,3856
2017-09-03T09:24:59.738Z,3832
2017-09-03T09:26:13.337Z,3820
2017-09-03T09:27:26.945Z,3612
2017-09-03T09:28:40.882Z,3536
2017-09-03T09:29:54.508Z,3376
2017-09-03T09:31:08.161Z,3300
2017-09-03T09:32:22.621Z,3432
2017-09-03T09:33:36.596Z,3456
2017-09-03T09:34:50.536Z,3732
2017-09-03T09:36:04.658Z,4072
2017-09-03T09:37:18.604Z,4040
2017-09-03T09:38:32.182Z,3744
2017-09-03T09:39:45.835Z,3632
2017-09-03T09:40:59.722Z,3688
2017-09-03T09:42:13.348Z,3808
2017-09-03T09:43:27.316Z,3872
2017-09-03T09:44:40.935Z,3764
2017-09-03T09:45:54.645Z,3544
2017-09-03T09:47:09.118Z,3472
2017-09-03T09:48:23.214Z,3484
2017-09-03T09:49:36.842Z,3452
2017-09-03T09:50:50.820Z,3384
2017-09-03T09:52:04.406Z,3372
2017-09-03T09:53:18.774Z,3436
2017-09-03T09:54:32.407Z,3448
2017-09-03T09:55:46.081Z,3372
2017-09-03T09:56:59.677Z,3276
2017-09-03T09:58:13.261Z,3216
2017-09-03T09:59:27.374Z,3228
2017-09-03T10:00:40.956Z,3268
2017-09-03T10:01:54.560Z,3324
2017-09-03T10:03:08.169Z,3392
2017-09-03T10:04:22.303Z,3464
2017-09-03T10:05:36.248Z,3512
2017-09-03T10:06:49.874Z,3592
2017-09-03T10:08:04.151Z,3680
2017-09-03T10:09:17.763Z,3780
2017-09-03T10:10:31.440Z,3860
2017-09-03T10:11:45.755Z,3928
2017-09-03T10:12:59.358Z,4052
2017-09-03T10:14:12.956Z,4220
2017-09-03T10:15:26.574Z,4412
2017-09-03T10:16:40.909Z,4436
2017-09-03T10:17:54.867Z,4284
2017-09-03T10:19:08.486Z,4068
2017-09-03T10:20:22.625Z,3988
2017-09-03T10:21:36.296Z,4028
2017-09-03T10:22:49.868Z,4184
2017-09-03T10:24:03.768Z,4512
2017-09-03T10:25:17.935Z,4768
2017-09-03T10:26:31.564Z,4772
2017-09-03T10:27:45.195Z,4832
2017-09-03T10:28:58.953Z,4920
2017-09-03T10:30:12.862Z,4776
2017-09-03T10:31:26.532Z,4692
2017-09-03T10:32:40.215Z,4728
2017-09-03T10:33:53.819Z,4492
2017-09-03T10:35:07.505Z,4448
2017-09-03T10:36:21.462Z,4492
2017-09-03T10:37:35.071Z,4612
2017-09-03T10:38:48.703Z,4624
2017-09-03T10:40:02.307Z,4324
2017-09-03T10:41:16.146Z,4380
2017-09-03T10:42:30.062Z,4328
2017-09-03T10:43:43.636Z,4220
2017-09-03T10:44:57.706Z,4060
2017-09-03T10:46:11.319Z,3768
2017-09-03T10:47:24.910Z,3660
2017-09-03T10:48:39.087Z,3616
2017-09-03T10:49:53.249Z,3528
2017-09-03T10:51:06.834Z,3520
2017-09-03T10:52:20.866Z,3480
2017-09-03T10:53:34.442Z,3400
2017-09-03T10:54:48.433Z,3436
2017-09-03T10:56:02.043Z,3580
2017-09-03T10:59:30.259Z,3664
2017-09-03T11:00:43.907Z,3584
2017-09-03T11:01:57.498Z,3616
2017-09-03T11:03:11.282Z,3760
2017-09-03T11:04:24.868Z,3840
2017-09-03T11:05:38.810Z,3768
2017-09-03T11:06:52.455Z,3448
2017-09-03T11:08:06.061Z,3724
2017-09-03T11:09:19.927Z,3888
2017-09-03T11:10:33.992Z,3992
2017-09-03T11:11:48.054Z,4048
2017-09-03T11:13:01.666Z,4360
2017-09-03T11:14:15.427Z,4544
2017-09-03T11:15:29.212Z,4688
2017-09-03T11:16:42.878Z,4512
2017-09-03T11:17:57.433Z,4172
2017-09-03T11:19:11.027Z,4200
2017-09-03T11:20:24.635Z,4284
2017-09-03T11:21:38.297Z,4668
2017-09-03T11:22:52.872Z,4804
2017-09-03T11:24:07.238Z,4652
2017-09-03T11:25:21.753Z,4324
2017-09-03T11:26:35.727Z,3648
2017-09-03T11:27:50.023Z,3240
2017-09-03T11:29:03.809Z,3028
2017-09-03T11:30:17.904Z,3032
2017-09-03T11:31:31.563Z,3120
2017-09-03T11:32:45.162Z,3096
2017-09-03T11:33:58.836Z,3012
2017-09-03T11:35:12.758Z,3024
2017-09-03T11:36:26.792Z,3096
2017-09-03T11:37:40.982Z,3104
2017-09-03T11:38:54.606Z,3052
2017-09-03T11:40:08.197Z,2984
2017-09-03T11:41:21.837Z,2888
2017-09-03T11:42:35.755Z,2844
2017-09-03T11:43:49.910Z,2840
2017-09-03T11:45:03.819Z,2976
2017-09-03T11:46:17.402Z,3096
2017-09-03T11:47:31.019Z,3152
2017-09-03T11:48:44.994Z,3148
2017-09-03T11:49:58.630Z,3160
2017-09-03T11:51:12.347Z,3068
2017-09-03T11:52:25.983Z,2968
2017-09-03T11:53:39.772Z,2964
2017-09-03T11:54:53.662Z,3008
2017-09-03T11:56:07.254Z,3092
2017-09-03T11:57:20.995Z,3264
2017-09-03T11:58:34.964Z,3380
2017-09-03T11:59:48.585Z,3524
2017-09-03T12:01:02.732Z,3788
2017-09-03T12:02:16.527Z,3996
2017-09-03T12:03:30.307Z,3972
2017-09-03T12:04:43.969Z,3844
2017-09-03T12:05:57.651Z,3812
2017-09-03T12:07:11.553Z,3700
2017-09-03T12:08:25.812Z,3548
2017-09-03T12:09:39.420Z,3524
2017-09-03T12:10:53.133Z,3616
2017-09-03T12:12:06.750Z,3708
2017-09-03T12:13:20.654Z,3956
2017-09-03T12:14:34.233Z,3936
2017-09-03T12:15:48.337Z,3996
2017-09-03T12:17:02.480Z,4196
2017-09-03T12:18:16.433Z,4400
2017-09-03T12:19:30.333Z,4564
2017-09-03T12:20:43.910Z,4668
2017-09-03T12:21:57.626Z,4712
2017-09-03T12:23:11.238Z,4820
2017-09-03T12:24:24.849Z,4924
2017-09-03T12:25:38.742Z,5008
2017-09-03T12:26:52.572Z,4852
2017-09-03T12:28:06.189Z,4836
2017-09-03T12:29:19.890Z,4892
2017-09-03T12:30:33.879Z,4936
2017-09-03T12:31:48.274Z,4852
2017-09-03T12:33:01.901Z,4640
2017-09-03T12:34:15.561Z,4468
2017-09-03T12:35:29.189Z,4264
2017-09-03T12:36:43.177Z,4040
2017-09-03T12:37:57.145Z,3764
2017-09-03T12:39:11.125Z,3668
2017-09-03T12:40:25.105Z,3788
2017-09-03T12:41:39.195Z,4020
2017-09-03T12:42:52.928Z,4092
2017-09-03T12:44:07.492Z,4068
2017-09-03T12:45:21.603Z,4072
2017-09-03T12:46:35.443Z,4140
2017-09-03T12:47:49.331Z,4052
2017-09-03T12:49:03.570Z,3876
2017-09-03T12:50:17.764Z,3752
2017-09-03T12:51:31.757Z,3728
2017-09-03T12:52:45.589Z,3760
2017-09-03T12:53:59.204Z,3764
2017-09-03T12:55:12.863Z,3740
2017-09-03T12:56:27.619Z,3768
2017-09-03T12:57:41.810Z,3800
2017-09-03T12:58:56.150Z,3812
2017-09-03T13:00:10.413Z,3836
2017-09-03T13:01:24.094Z,3892
2017-09-03T13:02:38.003Z,4036
2017-09-03T13:03:51.913Z,4164
2017-09-03T13:05:05.601Z,4284
2017-09-03T13:06:19.228Z,4408
2017-09-03T13:07:32.888Z,4552
2017-09-03T13:08:46.808Z,4704
2017-09-03T13:10:00.568Z,4784
2017-09-03T13:11:14.221Z,4840
2017-09-03T13:12:28.117Z,4788
2017-09-03T13:13:41.729Z,4708
2017-09-03T13:14:55.687Z,4624
2017-09-03T13:16:09.347Z,4568
2017-09-03T13:17:22.944Z,4572
2017-09-03T13:18:36.665Z,4572
2017-09-03T13:19:50.293Z,4536
2017-09-03T13:21:04.253Z,4564
2017-09-03T13:22:17.838Z,4556
2017-09-03T13:23:31.829Z,4540
2017-09-03T13:24:45.477Z,4488
2017-09-03T13:25:59.577Z,4400
2017-09-03T13:27:13.488Z,4272
2017-09-03T13:28:27.483Z,4044
2017-09-03T13:29:41.086Z,3732
2017-09-03T13:30:54.690Z,3428
2017-09-03T13:32:08.298Z,3176
2017-09-03T13:33:23.025Z,2976
2017-09-03T13:34:36.650Z,2824
2017-09-03T13:35:50.958Z,2692
2017-09-03T13:37:05.075Z,2580
2017-09-03T13:38:19.033Z,2568
2017-09-03T13:39:32.998Z,2600
2017-09-03T13:40:46.726Z,2632
2017-09-03T13:42:00.645Z,2684
2017-09-03T13:43:14.383Z,2744
2017-09-03T13:44:28.112Z,2776
2017-09-03T13:45:42.186Z,2776
2017-09-03T13:46:55.826Z,2708
2017-09-03T13:48:09.462Z,2680
2017-09-03T13:49:23.222Z,2708
2017-09-03T13:50:36.860Z,2744
2017-09-03T13:51:51.603Z,2764
2017-09-03T13:53:05.642Z,2752
2017-09-03T13:54:19.868Z,2668
2017-09-03T13:55:33.533Z,2456
2017-09-03T13:56:47.147Z,2268
2017-09-03T13:58:01.404Z,2168
2017-09-03T13:59:15.592Z,2112
2017-09-03T14:00:29.547Z,2056
2017-09-03T14:01:43.223Z,2008
2017-09-03T14:02:57.142Z,1968
2017-09-03T14:04:11.084Z,1920
2017-09-03T14:05:25.261Z,1876
2017-09-03T14:06:39.693Z,1848
2017-09-03T14:07:53.364Z,1828
2017-09-03T14:09:07.401Z,1832
2017-09-03T14:10:21.466Z,1860
2017-09-03T14:11:35.174Z,1888
2017-09-03T14:12:48.984Z,1932
2017-09-03T14:14:03.004Z,1988
2017-09-03T14:15:17.090Z,2044
2017-09-03T14:16:31.171Z,1984
2017-09-03T14:17:44.826Z,2004
2017-09-03T14:18:59.440Z,2052
2017-09-03T14:20:13.289Z,2032
2017-09-03T14:21:28.205Z,1996
2017-09-03T14:22:42.157Z,2016
2017-09-03T14:23:56.167Z,2068
2017-09-03T14:25:09.872Z,2180
2017-09-03T14:26:23.549Z,2208
2017-09-03T14:27:37.557Z,2184
2017-09-03T14:29:11.120Z,2296
2017-09-03T14:30:24.876Z,2212
2017-09-03T14:31:38.883Z,2176
2017-09-03T14:32:52.536Z,2140
2017-09-03T14:34:06.474Z,2156
2017-09-03T14:35:20.165Z,2152
2017-09-03T14:36:33.838Z,2136
2017-09-03T14:37:47.941Z,2116
2017-09-03T14:40:52.384Z,2104
2017-09-03T14:42:06.193Z,2096
2017-09-03T14:43:20.170Z,2072
2017-09-03T14:44:33.813Z,1956
2017-09-03T14:45:47.888Z,1864
2017-09-03T14:47:01.649Z,1860
2017-09-03T14:48:15.378Z,1848
2017-09-03T14:49:29.105Z,1960
2017-09-03T14:50:42.820Z,2008
2017-09-03T14:51:57.042Z,2020
2017-09-03T14:53:11.045Z,1988
2017-09-03T14:54:24.710Z,1976
2017-09-03T14:55:38.478Z,1956
2017-09-03T14:56:52.677Z,1976
2017-09-03T14:58:06.723Z,1968
2017-09-03T14:59:20.688Z,1936
2017-09-03T15:00:34.336Z,1908
2017-09-03T15:01:47.988Z,1904
2017-09-03T15:03:01.573Z,1912
2017-09-03T15:04:15.443Z,1916
2017-09-03T15:05:29.443Z,1912
2017-09-03T15:06:43.097Z,1912
2017-09-03T15:07:57.243Z,1908
2017-09-03T15:09:11.449Z,1900
2017-09-03T15:10:25.747Z,1896
2017-09-03T15:11:39.826Z,1888
2017-09-03T15:12:53.897Z,1888
2017-09-03T15:14:07.558Z,1896
2017-09-03T15:15:21.220Z,1904
2017-09-03T15:16:35.562Z,1916
2017-09-03T15:17:49.611Z,1912
2017-09-03T15:19:03.230Z,1916
2017-09-03T15:20:17.497Z,1924
2017-09-03T15:21:31.108Z,1936
2017-09-03T15:22:45.432Z,1956
2017-09-03T15:23:59.105Z,1956
2017-09-03T15:25:12.723Z,1956
2017-09-03T15:26:26.525Z,1952
2017-09-03T15:27:40.220Z,1948
2017-09-03T15:28:54.152Z,1940
2017-09-03T15:30:07.787Z,1944
2017-09-03T15:31:21.434Z,1948
2017-09-03T15:32:35.124Z,1964
2017-09-03T15:33:49.366Z,2000
2017-09-03T15:35:04.400Z,2032
2017-09-03T15:36:18.072Z,2048
2017-09-03T15:37:31.752Z,2068
2017-09-03T15:38:45.536Z,2144
2017-09-03T15:39:59.553Z,2232
2017-09-03T15:41:13.473Z,2232
2017-09-03T15:42:27.124Z,2192
2017-09-03T15:43:41.128Z,2156
2017-09-03T15:44:54.923Z,2040
2017-09-03T15:46:08.967Z,1976
2017-09-03T15:47:23.014Z,1964
2017-09-03T15:48:37.207Z,1948
2017-09-03T15:49:51.812Z,1984
2017-09-03T15:51:06.364Z,2060
2017-09-03T15:52:20.460Z,2172
2017-09-03T15:53:35.223Z,2268
2017-09-03T15:54:49.248Z,2324
2017-09-03T15:56:03.101Z,2364
2017-09-03T15:57:17.086Z,2416
2017-09-03T15:58:31.053Z,2404
2017-09-03T15:59:45.014Z,2348
2017-09-03T16:00:59.052Z,2308
2017-09-03T16:02:12.843Z,2316
2017-09-03T16:03:26.467Z,2312
2017-09-03T16:04:40.174Z,2276
2017-09-03T16:05:54.102Z,2220
2017-09-03T16:07:08.191Z,2212
2017-09-03T16:08:22.834Z,2212
2017-09-03T16:09:37.829Z,2224
2017-09-03T16:10:51.865Z,2196
2017-09-03T16:12:05.992Z,2224
2017-09-03T16:13:19.671Z,2256
2017-09-03T16:14:34.241Z,2268
2017-09-03T16:15:47.890Z,2280
2017-09-03T16:17:01.594Z,2280
2017-09-03T16:18:15.551Z,2236
2017-09-03T16:19:30.041Z,2148
2017-09-03T16:20:44.400Z,2064
2017-09-03T16:21:58.843Z,2072
2017-09-03T16:23:12.805Z,2072
2017-09-03T16:24:27.302Z,2056
2017-09-03T16:25:41.467Z,2036
2017-09-03T16:26:55.116Z,2012
2017-09-03T16:28:08.838Z,1980
2017-09-03T16:29:22.637Z,1952
2017-09-03T16:30:36.638Z,1932
2017-09-03T16:31:50.257Z,1932
2017-09-03T16:33:03.876Z,1956
2017-09-03T16:34:18.032Z,1944
2017-09-03T16:35:32.733Z,1920
2017-09-03T16:36:48.503Z,1884
2017-09-03T16:38:02.370Z,1872
2017-09-03T16:39:16.104Z,1848
2017-09-03T16:40:30.093Z,1832
2017-09-03T16:41:43.902Z,1856
2017-09-03T16:42:58.276Z,1868
2017-09-03T16:44:12.231Z,1840
2017-09-03T16:45:26.052Z,1796
2017-09-03T16:46:40.034Z,1748
2017-09-03T16:47:55.259Z,1700
2017-09-03T16:49:09.552Z,1644
2017-09-03T16:50:23.283Z,1628
2017-09-03T16:51:36.916Z,1644
2017-09-03T16:52:51.069Z,1672
2017-09-03T16:54:05.520Z,1628
2017-09-03T16:55:19.506Z,1584